TimePDT,TemperatureF,Dew PointF,Humidity,Sea Level PressureIn,VisibilityMPH,Wind Direction,Wind SpeedMPH,Gust SpeedMPH,PrecipitationIn,Events,Conditions,WindDirDegrees,DateUTC
12:53 AM,37.9,28.0,68,30.31,10.0,NW,3.5,-,N/A,,Clear,320,2012-10-05 07:53:00
1:53 AM,36.0,28.0,73,30.32,10.0,Calm,Calm,-,N/A,,Clear,0,2012-10-05 08:53:00
2:53 AM,35.1,28.0,76,30.33,10.0,Calm,Calm,-,N/A,,Clear,0,2012-10-05 09:53:00
3:53 AM,34.0,26.1,73,30.33,10.0,Calm,Calm,-,N/A,,Clear,0,2012-10-05 10:53:00
4:53 AM,33.1,27.0,78,30.34,10.0,Calm,Calm,-,N/A,,Clear,0,2012-10-05 11:53:00
5:53 AM,30.0,25.0,82,30.35,10.0,NNW,4.6,-,N/A,,Clear,340,2012-10-05 12:53:00
6:53 AM,30.9,25.0,79,30.37,10.0,NW,3.5,-,N/A,,Clear,320,2012-10-05 13:53:00
7:53 AM,34.0,27.0,75,30.39,10.0,Calm,Calm,-,N/A,,Clear,0,2012-10-05 14:53:00
8:53 AM,41.0,27.0,57,30.40,10.0,NW,4.6,-,N/A,,Clear,320,2012-10-05 15:53:00
10:53 AM,53.1,28.0,38,30.39,10.0,NNW,6.9,-,N/A,,Clear,330,2012-10-05 17:53:00
11:53 AM,55.9,28.0,34,30.38,10.0,Calm,Calm,-,N/A,,Clear,0,2012-10-05 18:53:00
12:53 PM,62.1,28.9,29,30.35,10.0,Variable,6.9,-,N/A,,Clear,0,2012-10-05 19:53:00
1:53 PM,63.0,28.9,28,30.32,10.0,Calm,Calm,-,N/A,,Clear,0,2012-10-05 20:53:00
2:53 PM,68.0,19.0,15,30.30,10.0,NE,9.2,16.1,N/A,,Clear,40,2012-10-05 21:53:00
3:53 PM,68.0,18.0,15,30.29,10.0,NNE,8.1,-,N/A,,Clear,30,2012-10-05 22:53:00
4:53 PM,66.9,18.0,15,30.28,10.0,ENE,6.9,-,N/A,,Clear,60,2012-10-05 23:53:00
5:53 PM,64.9,19.0,17,30.27,10.0,ENE,5.8,-,N/A,,Clear,60,2012-10-06 00:53:00
6:53 PM,48.9,30.9,50,30.28,10.0,NNW,6.9,-,N/A,,Clear,340,2012-10-06 01:53:00
7:53 PM,43.0,32.0,65,30.29,10.0,NNW,4.6,-,N/A,,Clear,340,2012-10-06 02:53:00
8:53 PM,44.1,28.9,55,30.30,10.0,NW,4.6,-,N/A,,Clear,320,2012-10-06 03:53:00
9:53 PM,44.1,27.0,51,30.30,10.0,NNW,3.5,-,N/A,,Clear,340,2012-10-06 04:53:00
10:53 PM,42.1,27.0,55,30.30,10.0,Calm,Calm,-,N/A,,Clear,0,2012-10-06 05:53:00
11:53 PM,39.9,25.0,55,30.31,10.0,Calm,Calm,-,N/A,,Clear,0,2012-10-06 06:53:00